Mattawamkeag, Maine
Current Conditions -  °F | °C
As of 6:53 PM on Saturday 22 Nov 2014 (Local Time) from KMLT Reporting Station
Overcast Overcast  
Wind Chill: 23°   Ceiling: 3600
Heat Index: 29°   Visibility: 10mi
Dew Point: 15°   Wind: 6mph
Humidity: 56%   Direction: NA
Pressure: 29.88"   Gusts: NA
Location:  45.51°N, 68.35°W
Report Text: KMLT 222353Z AUTO VRB05KT 10SM OVC036 M02/M09 A2988 RMK AO2 SLP129 T10171094 11011 21028 56020
Loading
Personal Weather Stations






























Interactive Weather Map New forecast layout! Learn more

10-Day Weather Forecast

Advertisements
Track Severe Weather on mobile